createdAt,value
2023-01-27T00:01:13.612Z,16.70
2023-01-27T00:03:20.942Z,16.70
2023-01-27T00:05:28.132Z,16.70
2023-01-27T00:07:34.955Z,16.70
2023-01-27T00:09:43.566Z,16.80
2023-01-27T00:12:07.079Z,16.70
2023-01-27T00:14:14.263Z,16.80
2023-01-27T00:16:22.930Z,16.80
2023-01-27T00:18:30.110Z,16.70
2023-01-27T00:20:53.893Z,16.70
2023-01-27T00:23:17.395Z,16.60
2023-01-27T00:25:24.437Z,16.60
2023-01-27T00:27:31.603Z,16.50
2023-01-27T00:29:38.587Z,16.60
2023-01-27T00:32:04.074Z,16.70
2023-01-27T00:34:13.952Z,16.80
2023-01-27T00:36:21.169Z,16.90
2023-01-27T00:38:28.049Z,16.90
2023-01-27T00:40:35.173Z,17.00
2023-01-27T00:42:42.148Z,17.10
2023-01-27T00:45:09.761Z,17.10
2023-01-27T00:47:18.309Z,17.20
2023-01-27T00:49:25.354Z,17.30
2023-01-27T00:51:32.179Z,17.30
2023-01-27T00:53:39.819Z,17.40
2023-01-27T00:55:48.259Z,17.50
2023-01-27T00:57:55.494Z,17.60
2023-01-27T01:00:02.397Z,17.70
2023-01-27T01:02:10.017Z,17.70
2023-01-27T01:04:18.695Z,17.80
2023-01-27T01:06:26.491Z,18.00
2023-01-27T01:08:35.673Z,18.10
2023-01-27T01:10:43.003Z,18.20
2023-01-27T01:12:49.941Z,18.30
2023-01-27T01:14:58.577Z,18.40
2023-01-27T01:17:05.470Z,18.50
2023-01-27T01:19:13.066Z,18.60
2023-01-27T01:21:22.341Z,18.80
2023-01-27T01:23:29.578Z,18.90
2023-01-27T01:25:36.491Z,19.00
2023-01-27T01:27:43.476Z,19.10
2023-01-27T01:29:50.351Z,19.20
2023-01-27T01:31:57.532Z,19.40
2023-01-27T01:34:04.356Z,19.50
2023-01-27T01:36:13.026Z,19.60
2023-01-27T01:38:21.685Z,19.60
2023-01-27T01:40:29.033Z,19.70
2023-01-27T01:42:55.868Z,19.80
2023-01-27T01:45:43.838Z,19.90
2023-01-27T01:47:50.678Z,20.00
2023-01-27T01:49:57.812Z,20.10
2023-01-27T01:52:10.369Z,20.20
2023-01-27T01:54:21.693Z,20.30
2023-01-27T01:56:34.312Z,20.40
2023-01-27T02:00:53.739Z,20.60
2023-01-27T02:03:00.832Z,20.70
2023-01-27T02:05:12.054Z,20.80
2023-01-27T02:07:26.660Z,20.90
2023-01-27T02:09:36.081Z,21.00
2023-01-27T02:11:42.955Z,21.10
2023-01-27T02:13:50.341Z,21.20
2023-01-27T02:15:57.983Z,21.30
2023-01-27T02:18:06.962Z,21.40
2023-01-27T02:20:22.997Z,21.50
2023-01-27T02:22:41.117Z,21.50
2023-01-27T02:24:53.540Z,21.60
2023-01-27T02:27:02.306Z,21.70
2023-01-27T02:29:12.264Z,21.80
2023-01-27T02:31:19.904Z,21.90
2023-01-27T02:33:28.122Z,22.00
2023-01-27T02:35:39.992Z,22.10
2023-01-27T02:37:46.615Z,22.20
2023-01-27T02:39:55.892Z,22.20
2023-01-27T02:42:07.536Z,22.30
2023-01-27T02:44:16.348Z,22.40
2023-01-27T02:46:24.019Z,22.50
2023-01-27T02:48:31.176Z,22.60
2023-01-27T02:50:38.152Z,22.70
2023-01-27T02:52:45.382Z,22.80
2023-01-27T02:54:52.307Z,22.90
2023-01-27T02:56:59.591Z,23.00
2023-01-27T02:59:10.202Z,23.10
2023-01-27T03:01:21.044Z,23.20
2023-01-27T03:03:27.944Z,23.20
2023-01-27T03:05:35.185Z,23.30
2023-01-27T03:07:42.101Z,23.40
2023-01-27T03:09:49.541Z,23.40
2023-01-27T03:12:12.491Z,23.50
2023-01-27T03:14:21.677Z,23.60
2023-01-27T03:16:45.133Z,23.70
2023-01-27T03:18:52.265Z,23.70
2023-01-27T03:21:05.412Z,23.80
2023-01-27T03:23:13.333Z,23.90
2023-01-27T03:25:20.570Z,24.10
2023-01-27T03:27:28.008Z,24.20
2023-01-27T03:30:10.667Z,24.20
2023-01-27T03:32:18.004Z,24.30
2023-01-27T03:34:37.066Z,24.40
2023-01-27T03:37:05.595Z,24.50
2023-01-27T03:39:29.065Z,24.60
2023-01-27T03:41:52.938Z,24.70
2023-01-27T03:44:17.834Z,24.80
2023-01-27T03:46:27.484Z,24.90
2023-01-27T03:48:34.838Z,24.90
2023-01-27T03:50:44.747Z,25.00
2023-01-27T03:53:05.656Z,25.10
2023-01-27T03:55:13.894Z,25.10
2023-01-27T03:57:20.888Z,25.20
2023-01-27T03:59:28.117Z,25.30
2023-01-27T04:01:36.835Z,25.40
2023-01-27T04:04:00.708Z,25.50
2023-01-27T04:06:25.300Z,25.50
2023-01-27T04:08:32.384Z,25.60
2023-01-27T04:10:39.303Z,25.60
2023-01-27T04:12:45.255Z,25.70
2023-01-27T04:14:53.614Z,25.80
2023-01-27T04:17:04.284Z,25.90
2023-01-27T04:19:13.050Z,26.00
2023-01-27T04:21:20.278Z,26.10
2023-01-27T04:23:27.086Z,26.20
2023-01-27T04:25:34.386Z,26.20
2023-01-27T04:27:41.209Z,26.30
2023-01-27T04:29:48.511Z,26.30
2023-01-27T04:31:55.650Z,26.40
2023-01-27T04:34:04.292Z,26.40
2023-01-27T04:36:12.041Z,26.50
2023-01-27T04:38:19.370Z,26.50
2023-01-27T04:40:26.404Z,26.60
2023-01-27T04:42:33.531Z,26.60
2023-01-27T04:44:40.611Z,26.70
2023-01-27T04:46:47.893Z,26.60
2023-01-27T04:48:54.921Z,26.60
2023-01-27T04:51:03.791Z,26.70
2023-01-27T04:53:10.673Z,26.60
2023-01-27T04:55:18.057Z,26.70
2023-01-27T04:57:24.879Z,26.80
2023-01-27T04:59:32.081Z,26.80
2023-01-27T05:01:38.967Z,26.70
2023-01-27T05:03:46.272Z,26.70
2023-01-27T05:05:53.192Z,26.70
2023-01-27T05:08:06.774Z,26.80
2023-01-27T05:10:14.829Z,26.80
2023-01-27T05:12:21.907Z,26.90
2023-01-27T05:14:29.190Z,26.90
2023-01-27T05:16:36.182Z,27.00
2023-01-27T05:18:43.965Z,27.00
2023-01-27T05:20:51.572Z,27.20
2023-01-27T05:25:36.722Z,27.30
2023-01-27T05:27:43.719Z,27.30
2023-01-27T05:29:50.642Z,27.40
2023-01-27T05:31:57.849Z,27.50
2023-01-27T05:34:05.517Z,27.50
2023-01-27T05:36:14.749Z,27.50
2023-01-27T05:38:21.671Z,27.50
2023-01-27T05:40:29.012Z,27.50
2023-01-27T05:42:37.622Z,27.50
2023-01-27T05:44:44.803Z,27.40
2023-01-27T05:46:51.782Z,27.50
2023-01-27T05:48:59.992Z,27.60
2023-01-27T05:51:07.734Z,27.60
2023-01-27T05:53:14.860Z,27.60
2023-01-27T05:55:22.095Z,27.60
2023-01-27T05:57:29.055Z,27.70
2023-01-27T05:59:37.788Z,27.70
2023-01-27T06:01:44.971Z,27.70
2023-01-27T06:03:52.768Z,27.80
2023-01-27T06:06:00.358Z,27.70
2023-01-27T06:08:07.386Z,27.80
2023-01-27T06:10:15.344Z,27.90
2023-01-27T06:12:22.161Z,28.00
2023-01-27T06:14:29.289Z,28.10
2023-01-27T06:16:37.872Z,28.10
2023-01-27T06:18:45.598Z,28.20
2023-01-27T06:20:52.629Z,28.20
2023-01-27T06:23:00.116Z,28.20
2023-01-27T06:25:07.090Z,28.10
2023-01-27T06:27:14.579Z,28.00
2023-01-27T06:29:21.510Z,28.00
2023-01-27T06:31:29.440Z,28.10
2023-01-27T06:33:38.109Z,28.10
2023-01-27T06:35:45.456Z,28.10
2023-01-27T06:37:53.061Z,28.20
2023-01-27T06:40:00.547Z,28.10
2023-01-27T06:42:14.512Z,28.10
2023-01-27T06:44:21.813Z,28.10
2023-01-27T06:46:28.743Z,28.10
2023-01-27T06:48:38.840Z,28.10
2023-01-27T06:50:45.717Z,28.10
2023-01-27T06:52:52.844Z,28.10
2023-01-27T06:54:59.768Z,28.20
2023-01-27T06:57:07.156Z,28.20
2023-01-27T06:59:14.028Z,28.40
2023-01-27T07:01:22.885Z,28.40
2023-01-27T07:03:30.081Z,28.40
2023-01-27T07:05:39.004Z,28.40
2023-01-27T07:07:45.779Z,28.40
2023-01-27T07:09:53.139Z,28.40
2023-01-27T07:11:59.945Z,28.30
2023-01-27T07:14:09.017Z,28.40
2023-01-27T07:16:17.415Z,28.40
2023-01-27T07:18:25.224Z,28.30
2023-01-27T07:20:32.455Z,28.40
2023-01-27T07:22:41.428Z,28.40
2023-01-27T07:24:48.351Z,28.40
2023-01-27T07:26:55.376Z,28.40
2023-01-27T07:29:02.405Z,28.50
2023-01-27T07:31:09.909Z,28.50
2023-01-27T07:33:17.335Z,28.50
2023-01-27T07:35:24.830Z,28.50
2023-01-27T07:37:31.696Z,28.40
2023-01-27T07:39:40.886Z,28.40
2023-01-27T07:41:47.750Z,28.40
2023-01-27T07:43:54.990Z,28.40
2023-01-27T07:46:04.402Z,28.40
2023-01-27T07:48:13.551Z,28.40
2023-01-27T07:50:20.832Z,28.40
2023-01-27T07:52:28.114Z,28.40
2023-01-27T07:54:34.933Z,28.30
2023-01-27T07:56:43.908Z,28.20
2023-01-27T07:58:50.833Z,28.20
2023-01-27T08:00:57.908Z,28.20
2023-01-27T08:03:07.095Z,28.20
2023-01-27T08:05:14.687Z,28.20
2023-01-27T08:07:21.677Z,28.10
2023-01-27T08:09:28.842Z,28.10
2023-01-27T08:11:35.722Z,28.20
2023-01-27T08:13:44.751Z,28.10
2023-01-27T08:15:57.971Z,28.20
2023-01-27T08:18:05.195Z,28.20
2023-01-27T08:20:13.917Z,28.20
2023-01-27T08:22:23.746Z,28.10
2023-01-27T08:24:30.734Z,28.00
2023-01-27T08:26:37.917Z,28.20
2023-01-27T08:28:46.485Z,28.10
2023-01-27T08:30:54.200Z,28.10
2023-01-27T08:33:01.061Z,28.10
2023-01-27T08:35:08.587Z,28.00
2023-01-27T08:37:15.879Z,28.00
2023-01-27T08:39:23.056Z,28.00
2023-01-27T08:41:31.930Z,28.00
2023-01-27T08:43:39.464Z,28.00
2023-01-27T08:45:48.308Z,27.90
2023-01-27T08:47:55.619Z,27.90
2023-01-27T08:50:02.542Z,27.90
2023-01-27T08:52:09.881Z,27.80
2023-01-27T08:54:16.805Z,27.80
2023-01-27T08:56:23.896Z,27.80
2023-01-27T08:58:31.066Z,27.70
2023-01-27T09:00:38.250Z,27.70
2023-01-27T09:02:46.967Z,27.70
2023-01-27T09:04:54.133Z,27.70
2023-01-27T09:07:01.023Z,27.60
2023-01-27T09:09:14.296Z,27.60
2023-01-27T09:11:21.612Z,27.50
2023-01-27T09:13:29.380Z,27.50
2023-01-27T09:15:37.279Z,27.50
2023-01-27T09:17:46.385Z,27.50
2023-01-27T09:19:53.231Z,27.50
2023-01-27T09:22:00.355Z,27.50
2023-01-27T09:24:07.358Z,27.40
2023-01-27T09:26:14.566Z,27.40
2023-01-27T09:28:21.594Z,27.30
2023-01-27T09:30:30.362Z,27.30
2023-01-27T09:32:37.390Z,27.30
2023-01-27T09:34:46.473Z,27.30
2023-01-27T09:36:56.058Z,27.30
2023-01-27T09:39:07.493Z,27.20
2023-01-27T09:41:57.624Z,27.20
2023-01-27T09:44:21.088Z,27.20
2023-01-27T09:46:41.473Z,27.10
2023-01-27T09:48:59.925Z,27.10
2023-01-27T09:51:16.380Z,27.10
2023-01-27T09:53:54.789Z,27.10
2023-01-27T09:56:08.441Z,27.00
2023-01-27T09:58:28.606Z,27.00
2023-01-27T10:00:49.510Z,26.90
2023-01-27T10:03:16.558Z,26.90
2023-01-27T10:05:48.216Z,26.90
2023-01-27T10:08:35.794Z,26.90
2023-01-27T10:11:02.124Z,26.90
2023-01-27T10:13:26.642Z,26.80
2023-01-27T10:15:49.109Z,26.80
2023-01-27T10:18:05.516Z,26.80
2023-01-27T10:20:28.297Z,26.70
2023-01-27T10:22:45.614Z,26.70
2023-01-27T10:25:03.576Z,26.70
2023-01-27T10:27:17.033Z,26.70
2023-01-27T10:29:28.202Z,26.60
2023-01-27T10:31:39.689Z,26.60
2023-01-27T10:33:54.693Z,26.50
2023-01-27T10:36:03.375Z,26.50
2023-01-27T10:38:17.718Z,26.40
2023-01-27T10:40:32.126Z,26.40
2023-01-27T10:42:46.875Z,26.40
2023-01-27T10:45:12.236Z,26.30
2023-01-27T10:47:30.940Z,26.30
2023-01-27T10:49:42.419Z,26.30
2023-01-27T10:51:56.418Z,26.20
2023-01-27T10:54:08.865Z,26.20
2023-01-27T10:56:25.728Z,26.20
2023-01-27T10:58:48.022Z,26.10
2023-01-27T11:01:19.973Z,26.10
2023-01-27T11:03:32.019Z,26.00
2023-01-27T11:05:42.818Z,25.90
2023-01-27T11:07:54.265Z,25.90
2023-01-27T11:10:05.955Z,26.00
2023-01-27T11:12:16.667Z,26.00
2023-01-27T11:14:31.528Z,25.90
2023-01-27T11:16:41.805Z,25.90
2023-01-27T11:18:52.499Z,25.90
2023-01-27T11:21:03.216Z,25.80
2023-01-27T11:23:20.685Z,25.80
2023-01-27T11:25:31.997Z,25.80
2023-01-27T11:27:57.019Z,25.70
2023-01-27T11:30:13.010Z,25.70
2023-01-27T11:32:33.237Z,25.70
2023-01-27T11:34:47.799Z,25.60
2023-01-27T11:36:55.179Z,25.60
2023-01-27T11:39:02.670Z,25.60
2023-01-27T11:41:10.029Z,25.50
2023-01-27T11:43:21.589Z,25.40
2023-01-27T11:45:30.615Z,25.40
2023-01-27T11:47:41.724Z,25.30
2023-01-27T11:49:53.169Z,25.30
2023-01-27T11:52:06.800Z,25.30
2023-01-27T11:54:21.000Z,25.30
2023-01-27T11:56:28.179Z,25.20
2023-01-27T11:58:41.966Z,25.20
2023-01-27T12:00:55.971Z,25.20
2023-01-27T12:03:09.902Z,25.10
2023-01-27T12:05:20.878Z,25.00
2023-01-27T12:07:41.619Z,25.00
2023-01-27T12:09:48.440Z,25.00
2023-01-27T12:12:14.367Z,25.00
2023-01-27T12:14:21.237Z,25.00
2023-01-27T12:16:46.696Z,24.90
2023-01-27T12:18:58.332Z,24.90
2023-01-27T12:21:05.410Z,24.90
2023-01-27T12:23:23.537Z,24.80
2023-01-27T12:25:32.933Z,24.70
2023-01-27T12:27:45.745Z,24.70
2023-01-27T12:29:56.819Z,24.70
2023-01-27T12:32:05.606Z,24.60
2023-01-27T12:34:23.520Z,24.60
2023-01-27T12:36:31.422Z,24.60
2023-01-27T12:38:40.499Z,24.60
2023-01-27T12:40:50.237Z,24.50
2023-01-27T12:43:13.859Z,24.60
2023-01-27T12:45:26.978Z,24.50
2023-01-27T12:47:35.901Z,24.50
2023-01-27T12:49:45.692Z,24.50
2023-01-27T12:51:58.723Z,24.50
2023-01-27T12:54:19.720Z,24.50
2023-01-27T12:56:27.613Z,24.40
2023-01-27T12:58:40.636Z,24.40
2023-01-27T13:00:50.287Z,24.40
2023-01-27T13:03:06.976Z,24.30
2023-01-27T13:05:21.072Z,24.30
2023-01-27T13:07:31.176Z,24.30
2023-01-27T13:09:42.090Z,24.20
2023-01-27T13:11:49.374Z,24.20
2023-01-27T13:13:56.505Z,24.20
2023-01-27T13:16:09.514Z,24.20
2023-01-27T13:18:24.588Z,24.20
2023-01-27T13:20:34.847Z,24.20
2023-01-27T13:22:47.717Z,24.10
2023-01-27T13:25:00.137Z,24.10
2023-01-27T13:27:09.801Z,24.00
2023-01-27T13:29:21.200Z,24.00
2023-01-27T13:31:43.974Z,24.00
2023-01-27T13:33:57.613Z,23.90
2023-01-27T13:36:10.433Z,23.90
2023-01-27T13:38:22.573Z,23.90
2023-01-27T13:40:34.655Z,23.80
2023-01-27T13:42:47.081Z,23.80
2023-01-27T13:44:59.787Z,23.80
2023-01-27T13:47:13.879Z,23.70
2023-01-27T13:49:34.374Z,23.70
2023-01-27T13:51:41.864Z,23.60
2023-01-27T13:53:50.168Z,23.60
2023-01-27T13:56:09.876Z,23.60
2023-01-27T13:58:24.705Z,23.60
2023-01-27T14:00:39.057Z,23.50
2023-01-27T14:03:22.826Z,23.50
2023-01-27T14:05:47.163Z,23.40
2023-01-27T14:07:59.941Z,23.30
2023-01-27T14:10:20.235Z,23.30
2023-01-27T14:12:41.747Z,23.30
2023-01-27T14:14:58.961Z,23.20
2023-01-27T14:17:31.031Z,23.10
2023-01-27T14:19:49.732Z,23.00
2023-01-27T14:22:03.162Z,23.00
2023-01-27T14:24:22.029Z,22.90
2023-01-27T14:26:46.656Z,22.80
2023-01-27T14:29:05.426Z,22.80
2023-01-27T14:31:19.010Z,22.70
2023-01-27T14:33:49.145Z,22.70
2023-01-27T14:36:02.742Z,22.70
2023-01-27T14:38:20.000Z,22.60
2023-01-27T14:40:32.569Z,22.60
2023-01-27T14:42:48.087Z,22.50
2023-01-27T14:45:04.342Z,22.50
2023-01-27T14:47:19.305Z,22.40
2023-01-27T14:49:34.216Z,22.40
2023-01-27T14:51:46.248Z,22.30
2023-01-27T14:54:20.014Z,22.30
2023-01-27T14:56:38.410Z,22.30
2023-01-27T14:58:56.606Z,22.20
2023-01-27T15:01:14.279Z,22.20
2023-01-27T15:03:51.166Z,22.20
2023-01-27T15:06:05.406Z,22.10
2023-01-27T15:08:20.113Z,22.10
2023-01-27T15:10:30.681Z,22.00
2023-01-27T15:12:55.880Z,22.00
2023-01-27T15:15:31.273Z,21.90
2023-01-27T15:17:54.978Z,21.90
2023-01-27T15:20:33.837Z,21.90
2023-01-27T15:22:57.010Z,21.80
2023-01-27T15:25:22.182Z,21.80
2023-01-27T15:27:31.590Z,21.80
2023-01-27T15:29:38.760Z,21.70
2023-01-27T15:31:46.230Z,21.70
2023-01-27T15:33:58.894Z,21.70
2023-01-27T15:36:21.519Z,21.60
2023-01-27T15:38:35.932Z,21.60
2023-01-27T15:41:05.834Z,21.50
2023-01-27T15:43:18.405Z,21.50
2023-01-27T15:45:33.172Z,21.50
2023-01-27T15:47:40.036Z,21.50
2023-01-27T15:49:50.648Z,21.40
2023-01-27T15:51:59.933Z,21.40
2023-01-27T15:54:07.880Z,21.30
2023-01-27T15:56:14.907Z,21.30
2023-01-27T15:58:31.552Z,21.20
2023-01-27T16:00:40.636Z,21.20
2023-01-27T16:02:53.860Z,21.10
2023-01-27T16:05:11.130Z,21.10
2023-01-27T16:07:27.525Z,21.00
2023-01-27T16:09:41.628Z,21.00
2023-01-27T16:12:02.427Z,21.00
2023-01-27T16:14:45.547Z,20.90
2023-01-27T16:17:30.411Z,20.90
2023-01-27T16:19:39.949Z,20.70
2023-01-27T16:21:52.607Z,20.70
2023-01-27T16:24:04.078Z,20.70
2023-01-27T16:26:30.767Z,20.70
2023-01-27T16:28:40.315Z,20.80
2023-01-27T16:31:00.130Z,20.70
2023-01-27T16:33:10.246Z,20.80
2023-01-27T16:35:21.582Z,20.70
2023-01-27T16:37:30.905Z,20.70
2023-01-27T16:39:46.845Z,20.70
2023-01-27T16:41:58.256Z,20.60
2023-01-27T16:44:08.271Z,20.50
2023-01-27T16:46:32.194Z,20.50
2023-01-27T16:48:45.021Z,20.50
2023-01-27T16:50:52.908Z,20.50
2023-01-27T16:52:59.938Z,20.50
2023-01-27T16:55:07.403Z,20.50
2023-01-27T16:57:32.975Z,20.50
2023-01-27T16:59:42.934Z,20.50
2023-01-27T17:01:54.313Z,20.40
2023-01-27T17:04:19.136Z,20.30
2023-01-27T17:06:29.620Z,20.40
2023-01-27T17:08:38.181Z,20.40
2023-01-27T17:10:48.335Z,20.20
2023-01-27T17:12:55.208Z,20.20
2023-01-27T17:15:03.012Z,20.10
2023-01-27T17:17:21.463Z,20.10
2023-01-27T17:19:32.063Z,20.00
2023-01-27T17:21:43.756Z,20.00
2023-01-27T17:23:50.344Z,20.00
2023-01-27T17:25:57.553Z,19.90
2023-01-27T17:28:05.758Z,19.80
2023-01-27T17:30:23.694Z,19.70
2023-01-27T17:32:35.082Z,19.70
2023-01-27T17:34:43.888Z,19.60
2023-01-27T17:37:10.680Z,19.60
2023-01-27T17:39:29.130Z,19.50
2023-01-27T17:41:40.402Z,19.50
2023-01-27T17:43:48.608Z,19.50
2023-01-27T17:46:16.565Z,19.50
2023-01-27T17:48:25.302Z,19.50
2023-01-27T17:50:37.437Z,19.40
2023-01-27T17:52:52.501Z,19.40
2023-01-27T17:55:07.219Z,19.40
2023-01-27T17:57:21.275Z,19.30
2023-01-27T17:59:29.925Z,19.30
2023-01-27T18:01:37.742Z,19.20
2023-01-27T18:03:46.444Z,19.20
2023-01-27T18:05:56.114Z,19.20
2023-01-27T18:08:04.853Z,19.10
2023-01-27T18:10:27.544Z,19.10
2023-01-27T18:12:36.810Z,19.00
2023-01-27T18:14:43.956Z,18.90
2023-01-27T18:17:02.035Z,19.00
2023-01-27T18:19:24.379Z,18.80
2023-01-27T18:21:31.407Z,18.70
2023-01-27T18:23:40.993Z,18.70
2023-01-27T18:25:51.891Z,18.70
2023-01-27T18:28:02.071Z,18.70
2023-01-27T18:30:16.976Z,18.60
2023-01-27T18:32:27.232Z,18.50
2023-01-27T18:34:36.817Z,18.50
2023-01-27T18:36:56.556Z,18.40
2023-01-27T18:39:03.727Z,18.40
2023-01-27T18:41:16.386Z,18.30
2023-01-27T18:43:23.208Z,18.30
2023-01-27T18:45:31.260Z,18.30
2023-01-27T18:47:39.672Z,18.30
2023-01-27T18:49:48.694Z,18.20
2023-01-27T18:51:56.081Z,18.10
2023-01-27T18:54:03.267Z,18.10
2023-01-27T18:56:10.754Z,18.10
2023-01-27T18:58:19.061Z,18.20
2023-01-27T19:00:27.600Z,18.10
2023-01-27T19:02:34.754Z,18.10
2023-01-27T19:04:41.680Z,18.10
2023-01-27T19:06:51.456Z,18.10
2023-01-27T19:08:58.278Z,18.10
2023-01-27T19:11:05.579Z,18.10
2023-01-27T19:13:15.484Z,18.10
2023-01-27T19:15:24.862Z,18.10
2023-01-27T19:17:31.685Z,18.10
2023-01-27T19:19:39.271Z,18.10
2023-01-27T19:21:46.155Z,18.20
2023-01-27T19:23:55.196Z,18.20
2023-01-27T19:26:03.274Z,18.20
2023-01-27T19:28:16.859Z,18.10
2023-01-27T19:30:28.293Z,18.00
2023-01-27T19:32:35.469Z,18.00
2023-01-27T19:34:42.245Z,18.00
2023-01-27T19:36:49.409Z,18.00
2023-01-27T19:39:02.551Z,18.00
2023-01-27T19:41:10.941Z,17.90
2023-01-27T19:43:18.442Z,17.90
2023-01-27T19:45:26.316Z,17.90
2023-01-27T19:47:33.146Z,17.90
2023-01-27T19:49:40.295Z,17.90
2023-01-27T19:51:47.100Z,17.90
2023-01-27T19:53:54.415Z,17.80
2023-01-27T19:56:02.915Z,17.80
2023-01-27T19:58:10.148Z,17.70
2023-01-27T20:00:25.829Z,17.60
2023-01-27T20:02:33.139Z,17.60
2023-01-27T20:04:40.045Z,17.50
2023-01-27T20:06:47.219Z,17.40
2023-01-27T20:08:56.548Z,17.30
2023-01-27T20:11:05.268Z,17.30
2023-01-27T20:13:16.649Z,17.20
2023-01-27T20:15:25.338Z,17.20
2023-01-27T20:17:32.139Z,17.10
2023-01-27T20:19:39.051Z,17.10
2023-01-27T20:21:46.457Z,17.10
2023-01-27T20:23:53.328Z,17.10
2023-01-27T20:26:00.658Z,17.10
2023-01-27T20:28:09.428Z,17.00
2023-01-27T20:30:19.951Z,17.00
2023-01-27T20:32:27.067Z,17.00
2023-01-27T20:34:34.353Z,17.00
2023-01-27T20:36:41.284Z,17.10
2023-01-27T20:38:48.867Z,17.10
2023-01-27T20:40:55.732Z,17.00
2023-01-27T20:43:03.438Z,17.00
2023-01-27T20:45:13.480Z,17.00
2023-01-27T20:47:20.821Z,17.00
2023-01-27T20:49:28.056Z,16.90
2023-01-27T20:51:35.491Z,16.90
2023-01-27T20:53:46.259Z,16.90
2023-01-27T20:55:53.540Z,16.90
2023-01-27T20:58:01.858Z,16.90
2023-01-27T21:00:12.203Z,16.90
2023-01-27T21:02:19.562Z,16.90
2023-01-27T21:04:26.882Z,17.00
2023-01-27T21:06:33.748Z,17.00
2023-01-27T21:08:40.929Z,17.00
2023-01-27T21:10:47.857Z,17.00
2023-01-27T21:12:54.888Z,17.10
2023-01-27T21:15:02.716Z,17.10
2023-01-27T21:17:12.728Z,17.10
2023-01-27T21:19:19.900Z,17.00
2023-01-27T21:21:28.937Z,17.10
2023-01-27T21:23:36.643Z,17.10
2023-01-27T21:25:43.810Z,17.10
2023-01-27T21:27:50.842Z,17.00
2023-01-27T21:29:57.869Z,17.00
2023-01-27T21:32:04.788Z,17.00
2023-01-27T21:34:14.287Z,17.10
2023-01-27T21:36:22.076Z,17.00
2023-01-27T21:38:29.407Z,17.00
2023-01-27T21:40:36.320Z,17.00
2023-01-27T21:43:00.060Z,17.00
2023-01-27T21:45:14.738Z,16.90
2023-01-27T21:47:22.458Z,16.90
2023-01-27T21:49:31.223Z,16.80
2023-01-27T21:51:38.558Z,16.80
2023-01-27T21:53:45.790Z,16.80
2023-01-27T21:55:52.923Z,16.80
2023-01-27T21:57:59.847Z,16.70
2023-01-27T22:00:07.746Z,16.70
2023-01-27T22:02:23.528Z,16.60
2023-01-27T22:04:32.262Z,16.60
2023-01-27T22:06:40.714Z,16.60
2023-01-27T22:08:47.738Z,16.60
2023-01-27T22:10:54.969Z,16.60
2023-01-27T22:13:02.763Z,16.50
2023-01-27T22:15:11.367Z,16.50
2023-01-27T22:17:19.995Z,16.40
2023-01-27T22:19:27.124Z,16.40
2023-01-27T22:21:36.154Z,16.40
2023-01-27T22:23:43.183Z,16.30
2023-01-27T22:25:52.471Z,16.30
2023-01-27T22:27:59.371Z,16.30
2023-01-27T22:30:06.617Z,16.10
2023-01-27T22:32:13.499Z,15.90
2023-01-27T22:34:20.979Z,15.80
2023-01-27T22:36:27.751Z,15.60
2023-01-27T22:38:40.565Z,15.60
2023-01-27T22:40:47.438Z,15.70
2023-01-27T22:42:54.520Z,15.70
2023-01-27T22:45:01.495Z,15.80
2023-01-27T22:47:08.626Z,15.80
2023-01-27T22:49:15.537Z,15.90
2023-01-27T22:51:22.630Z,15.80
2023-01-27T22:53:29.462Z,15.80
2023-01-27T22:55:38.323Z,15.70
2023-01-27T22:57:48.789Z,15.70
2023-01-27T22:59:55.963Z,15.60
2023-01-27T23:02:02.953Z,15.60
2023-01-27T23:04:10.121Z,15.60
2023-01-27T23:06:16.998Z,15.60
2023-01-27T23:08:24.028Z,15.60
2023-01-27T23:10:30.899Z,15.60
2023-01-27T23:12:39.830Z,15.60
2023-01-27T23:14:46.747Z,15.60
2023-01-27T23:16:54.570Z,15.60
2023-01-27T23:19:01.472Z,15.60
2023-01-27T23:21:09.930Z,15.60
2023-01-27T23:23:17.455Z,15.60
2023-01-27T23:25:24.859Z,15.50
2023-01-27T23:27:31.783Z,15.60
2023-01-27T23:29:40.410Z,15.60
2023-01-27T23:31:47.437Z,15.50
2023-01-27T23:33:54.815Z,15.50
2023-01-27T23:36:01.838Z,15.50
2023-01-27T23:38:19.508Z,15.50
2023-01-27T23:40:34.685Z,15.50
2023-01-27T23:42:41.968Z,15.50
2023-01-27T23:44:51.206Z,15.50
2023-01-27T23:46:58.538Z,15.50
2023-01-27T23:49:05.366Z,15.50
2023-01-27T23:51:13.296Z,15.40
2023-01-27T23:53:20.292Z,15.40
2023-01-27T23:55:27.463Z,15.40
2023-01-27T23:57:34.390Z,15.40
2023-01-27T23:59:42.287Z,15.30
